x

Central Caribbean - 210 Nm Sse Of Kingston, Jamaica (42058) Wave Buoy

6:50pm - Thu 27th Nov 2014 All times are EST. -5 hours from GMT.

  • Sig Wave height 6.2ft
  • Swell Direction
  • Peak Period 7s
  • Average Period 6s
  • Wind
    16mph, 20mph gusts
  • Sea Temp 83°f
  • 空気 Temp 83°f
  • Sea Pressure 1011.8mb
  • Central Caribbean - 210 Nm Sse Of Kingston, Jamaica
  • Central Caribbean - 210 Nm Sse Of Kingston, Jamaica

More Historic Weather Station data

Upgrade to MSW Pro to gain access to the past 30 days of data for over 8000 Wavebouys and Weather Stations around the globe.

Join Pro

Comparision Forecast

View Surf forecast
   
Thu 11/27 6:50pm 6ft 7s 6s 16 20 mph 1011.8mb 83f 83f
5:50pm 6ft 8s 5s 18 22 mph 1010.9mb 84f 83f
4:50pm 6ft 8s 6s 16 20 mph 1010.8mb 84f 82f
3:50pm 6ft 8s 5s 18 22 mph 1010.5mb 84f 82f
2:50pm 6ft 8s 6s 18 20 mph 1010.8mb 84f 83f
1:50pm 6ft 8s 6s 20 22 mph 1011.2mb 84f 83f
12:50pm 7ft 8s 6s 18 22 mph 1012mb 84f 83f
11:50am 7ft 8s 6s 18 22 mph 1012.9mb 84f 83f
10:50am 7ft 8s 6s 18 22 mph 1013.7mb 84f 83f
9:50am 7ft 8s 6s 20 25 mph 1014mb 84f 83f
8:50am 8ft 8s 6s 20 25 mph 1013.9mb 84f 83f
7:50am 7ft 8s 6s 20 25 mph 1013.4mb 84f 82f
6:50am 7.5ft 8s 6s 20 22 mph 1013mb 84f 81f
5:50am 7ft 8s 6s 22 27 mph 1012.2mb 84f 82f
4:50am 8ft 8s 6s 25 29 mph 1011.6mb 84f 83f
3:50am 7.5ft 8s 6s 20 25 mph 1011.6mb 84f 83f
2:50am 7ft 8s 6s 20 25 mph 1011.9mb 84f 83f
1:50am 7ft 8s 6s 20 25 mph 1012.4mb 84f 83f
12:50am 7ft 8s 6s 22 29 mph 1012.6mb 84f 83f
Wed 11/26 11:50pm 8ft 8s 6s 22 27 mph 1013.1mb 84f 83f
10:50pm 7.5ft 8s 6s 22 27 mph 1013.5mb 84f 83f
9:50pm 8ft 8s 6s 22 27 mph 1013.5mb 84f 83f
8:50pm 8ft 8s 6s 22 27 mph 1013.4mb 84f 83f
7:50pm 7.5ft 8s 6s 22 27 mph 1013.1mb 84f 83f
6:50pm 8ft 8s 6s 22 27 mph 1012.8mb 84f 83f
5:50pm 7ft 9s 6s 25 29 mph 1012.3mb 84f 83f
4:50pm 7.5ft 8s 6s 20 27 mph 1012.1mb 84f 82f
3:50pm 7.5ft 9s 6s 22 27 mph 1011.6mb 84f 81f
2:50pm 8ft 9s 6s 20 25 mph 1011.5mb 84f 83f
1:50pm 8ft 8s 6s 20 25 mph 1011.7mb 84f 83f
12:50pm 7.5ft 8s 6s 18 22 mph 1012.5mb 84f 83f
11:50am 8ft 8s 6s 22 27 mph 1013mb 84f 83f
10:50am 8ft 8s 6s 22 29 mph 1013.7mb 84f 83f
9:50am 8ft 8s 6s 22 27 mph 1014.1mb 84f 84f
8:50am 8ft 8s 6s 20 25 mph 1013.9mb 84f 83f
7:50am 8ft 8s 6s 22 29 mph 1013.2mb 84f 83f
6:50am 8ft 9s 6s 22 27 mph 1012.3mb 84f 83f
5:50am 8ft 7s 6s 22 29 mph 1011.5mb 84f 82f
4:50am 8.5ft 9s 6s 22 27 mph 1010.9mb 84f 83f
3:50am 9ft 8s 6s 22 27 mph 1010.5mb 84f 83f
2:50am 8.5ft 8s 6s 22 27 mph 1010.6mb 84f 83f
1:50am 9ft 8s 6s 25 29 mph 1010.9mb 84f 83f
12:50am 9ft 7s 6s 27 29 mph 1011.1mb 84f 83f
Tue 11/25 11:50pm 9ft 8s 6s 25 29 mph 1011.6mb 84f 83f
10:50pm 8ft 8s 6s 27 34 mph 1011.7mb 84f 83f
9:50pm 9ft 8s 6s 27 31 mph 1012mb 84f 83f
8:50pm 9ft 8s 6s 25 29 mph 1012.1mb 84f 83f
7:50pm 8.5ft 8s 6s 25 29 mph 1011.7mb 84f 83f
6:50pm 9.5ft 8s 6s 25 29 mph 1011mb 84f 83f
5:50pm 9ft 9s 6s 22 29 mph 1011mb 84f 84f
4:50pm 10ft 9s 6s 25 31 mph 1010.6mb 84f 83f
3:50pm 10ft 9s 7s 22 27 mph 1010.3mb 84f 84f
2:50pm 9.5ft 8s 6s 25 27 mph 1010.3mb 84f 84f
1:50pm 10ft 8s 6s 27 31 mph 1010.8mb 84f 84f
12:50pm 9.5ft 9s 6s 27 31 mph 1011.5mb 84f 84f
11:50am 11ft 9s 7s 25 31 mph 1012.6mb 84f 84f
10:50am 10ft 8s 6s 25 31 mph 1012.8mb 84f 84f
9:50am 10.5ft 8s 6s 27 31 mph 1013.2mb 84f 83f
8:50am 9ft 8s 6s 27 31 mph 1013.3mb 84f 84f
7:50am 9ft 8s 6s 27 34 mph 1012.6mb 84f 84f
6:50am 9.5ft 8s 6s 27 31 mph 1012mb 84f 83f
5:50am 9.5ft 8s 6s 25 29 mph 1011.6mb 84f 83f
4:50am 8.5ft 9s 6s 27 31 mph 1011.2mb 84f 83f
3:50am 8ft 8s 6s 27 31 mph 1010.9mb 84f 83f
2:50am 9ft 8s 6s 25 29 mph 1011mb 84f 83f
1:50am 8.5ft 9s 6s 25 29 mph 1011.3mb 84f 83f
12:50am 9ft 9s 6s 25 27 mph 1012mb 84f 83f
Mon 11/24 11:50pm 9ft 8s 6s 25 29 mph 1012.4mb 84f 83f
10:50pm 8.5ft 9s 6s 25 29 mph 1012.8mb 84f 83f
9:50pm 9.5ft 8s 6s 25 31 mph 1012.7mb 84f 84f
8:50pm 9ft 8s 6s 25 29 mph 1012.4mb 84f 84f
7:50pm 9ft 8s 6s 22 29 mph 1011.9mb 84f 83f
6:50pm 9.5ft 8s 7s 22 27 mph 1011mb 84f 84f
5:50pm 9ft 9s 6s 25 29 mph 1010.5mb 84f 84f
4:50pm 9ft 8s 6s 27 31 mph 1010.1mb 84f 84f
3:50pm 9ft 9s 6s 25 29 mph 1009.8mb 84f 84f
2:50pm 9.5ft 9s 6s 22 27 mph 1009.8mb 84f 84f
1:50pm 9.5ft 8s 6s 22 27 mph 1010.1mb 84f 84f
12:50pm 10.5ft 8s 6s 25 29 mph 1010.8mb 84f 84f
11:50am 9.5ft 8s 6s 25 31 mph 1011.9mb 84f 84f
10:50am 10ft 8s 6s 25 31 mph 1012.4mb 84f 84f
9:50am 10ft 8s 6s 27 31 mph 1012.5mb 84f 84f
8:50am 9.5ft 8s 6s 25 29 mph 1012.6mb 84f 84f
7:50am 9ft 9s 6s 27 31 mph 1012.2mb 84f 84f
6:50am 9.5ft 8s 6s 27 31 mph 1011.1mb 84f 84f
5:50am 9ft 8s 6s 27 31 mph 1010.2mb 84f 84f
4:50am 9ft 8s 6s 27 31 mph 1009.9mb 84f 83f
3:50am 9ft 8s 6s 27 31 mph 1009.5mb 84f 83f
2:50am 9ft 8s 6s 27 34 mph 1009.4mb 84f 83f
1:50am 9ft 8s 6s 25 31 mph 1009.7mb 84f 83f